createdAt,value
2018-12-23T00:01:57.620Z,2.87
2018-12-23T00:04:07.015Z,2.53
2018-12-23T00:06:14.196Z,4.30
2018-12-23T00:08:20.674Z,2.03
2018-12-23T00:10:25.266Z,2.50
2018-12-23T00:12:30.091Z,2.30
2018-12-23T00:14:34.591Z,2.17
2018-12-23T00:16:40.951Z,1.90
2018-12-23T00:18:45.478Z,2.00
2018-12-23T00:20:50.194Z,2.53
2018-12-23T00:22:54.208Z,2.20
2018-12-23T00:24:58.229Z,2.13
2018-12-23T00:27:02.631Z,2.33
2018-12-23T00:29:11.056Z,2.00
2018-12-23T00:31:16.845Z,2.23
2018-12-23T00:33:25.446Z,2.10
2018-12-23T00:35:31.341Z,2.27
2018-12-23T00:37:35.048Z,2.10
2018-12-23T00:39:39.880Z,1.93
2018-12-23T00:41:43.790Z,1.90
2018-12-23T00:43:48.104Z,1.73
2018-12-23T00:45:52.353Z,2.10
2018-12-23T00:47:59.057Z,2.27
2018-12-23T00:50:04.814Z,1.93
2018-12-23T00:52:08.868Z,1.43
2018-12-23T00:54:15.200Z,1.87
2018-12-23T00:56:19.922Z,2.10
2018-12-23T00:58:28.872Z,1.80
2018-12-23T01:00:33.017Z,2.20
2018-12-23T01:02:36.628Z,1.93
2018-12-23T01:04:43.612Z,2.03
2018-12-23T01:06:52.027Z,2.30
2018-12-23T01:08:58.249Z,1.73
2018-12-23T01:11:02.256Z,1.77
2018-12-23T01:13:05.825Z,1.70
2018-12-23T01:15:10.873Z,1.70
2018-12-23T01:17:14.881Z,1.63
2018-12-23T01:19:19.048Z,1.50
2018-12-23T01:21:24.350Z,1.60
2018-12-23T01:23:34.512Z,1.60
2018-12-23T01:25:38.567Z,1.73
2018-12-23T01:27:42.633Z,1.87
2018-12-23T01:29:50.407Z,1.60
2018-12-23T01:31:55.960Z,1.80
2018-12-23T01:34:02.637Z,1.30
2018-12-23T01:36:06.445Z,1.40
2018-12-23T01:38:10.365Z,1.40
2018-12-23T01:40:14.974Z,2.03
2018-12-23T01:42:18.778Z,1.40
2018-12-23T01:44:23.123Z,1.60
2018-12-23T01:46:27.006Z,1.30
2018-12-23T01:48:30.921Z,1.70
2018-12-23T01:50:35.126Z,1.70
2018-12-23T01:52:39.088Z,1.50
2018-12-23T01:54:43.044Z,1.57
2018-12-23T01:56:47.542Z,1.80
2018-12-23T01:58:53.935Z,1.60
2018-12-23T02:01:00.920Z,1.70
2018-12-23T02:03:08.208Z,1.77
2018-12-23T02:05:11.956Z,1.43
2018-12-23T02:07:15.923Z,1.53
2018-12-23T02:09:20.349Z,1.50
2018-12-23T02:11:25.017Z,1.40
2018-12-23T02:13:29.291Z,2.10
2018-12-23T02:15:33.322Z,1.50
2018-12-23T02:17:37.274Z,1.50
2018-12-23T02:19:41.008Z,1.50
2018-12-23T02:21:45.358Z,1.93
2018-12-23T02:23:49.601Z,1.50
2018-12-23T02:25:55.046Z,1.30
2018-12-23T02:28:02.861Z,1.63
2018-12-23T02:30:10.178Z,1.50
2018-12-23T02:32:14.436Z,1.50
2018-12-23T02:34:18.501Z,1.50
2018-12-23T02:36:22.483Z,1.63
2018-12-23T02:38:26.306Z,1.60
2018-12-23T02:40:30.747Z,1.47
2018-12-23T02:42:35.466Z,1.60
2018-12-23T02:44:39.320Z,1.23
2018-12-23T02:46:43.600Z,1.40
2018-12-23T02:48:47.750Z,1.63
2018-12-23T02:50:52.006Z,2.10
2018-12-23T02:52:56.477Z,1.40
2018-12-23T02:55:03.813Z,1.90
2018-12-23T02:57:11.528Z,1.33
2018-12-23T02:59:18.412Z,1.50
2018-12-23T03:01:22.259Z,1.53
2018-12-23T03:03:26.186Z,1.50
2018-12-23T03:05:30.455Z,1.10
2018-12-23T03:07:34.109Z,1.60
2018-12-23T03:09:38.339Z,1.40
2018-12-23T03:11:42.811Z,1.50
2018-12-23T03:13:46.625Z,1.67
2018-12-23T03:15:50.548Z,1.43
2018-12-23T03:17:54.501Z,1.30
2018-12-23T03:19:58.259Z,1.37
2018-12-23T03:22:02.624Z,1.33
2018-12-23T03:24:12.016Z,1.30
2018-12-23T03:26:17.033Z,1.67
2018-12-23T03:28:21.697Z,1.03
2018-12-23T03:30:26.106Z,1.40
2018-12-23T03:32:29.827Z,1.60
2018-12-23T03:34:35.562Z,1.70
2018-12-23T03:36:41.776Z,3.10
2018-12-23T03:38:45.658Z,1.23
2018-12-23T03:40:51.932Z,1.70
2018-12-23T03:42:58.130Z,1.50
2018-12-23T03:45:02.791Z,1.27
2018-12-23T03:47:09.572Z,1.60
2018-12-23T03:49:17.544Z,1.53
2018-12-23T03:51:26.613Z,1.50
2018-12-23T03:53:31.543Z,1.40
2018-12-23T03:55:37.654Z,1.47
2018-12-23T03:57:42.107Z,1.53
2018-12-23T03:59:49.362Z,1.57
2018-12-23T04:01:58.484Z,1.33
2018-12-23T04:04:04.859Z,1.30
2018-12-23T04:06:10.956Z,1.50
2018-12-23T04:08:16.536Z,1.40
2018-12-23T04:10:24.164Z,2.70
2018-12-23T04:12:34.474Z,1.67
2018-12-23T04:14:39.950Z,1.30
2018-12-23T04:16:47.936Z,1.00
2018-12-23T04:18:56.883Z,1.37
2018-12-23T04:21:03.979Z,1.20
2018-12-23T04:23:09.255Z,1.50
2018-12-23T04:25:14.797Z,2.43
2018-12-23T04:27:21.880Z,1.23
2018-12-23T04:29:27.136Z,1.03
2018-12-23T04:31:31.375Z,1.23
2018-12-23T04:33:39.347Z,1.23
2018-12-23T04:35:44.511Z,0.90
2018-12-23T04:37:53.561Z,1.13
2018-12-23T04:40:04.092Z,0.90
2018-12-23T04:42:08.853Z,1.20
2018-12-23T04:44:17.359Z,1.20
2018-12-23T04:46:22.216Z,1.20
2018-12-23T04:48:27.227Z,1.10
2018-12-23T04:50:30.838Z,1.30
2018-12-23T04:52:34.716Z,1.37
2018-12-23T04:54:38.320Z,1.47
2018-12-23T04:56:42.613Z,1.50
2018-12-23T04:58:46.936Z,1.53
2018-12-23T05:00:57.941Z,1.20
2018-12-23T05:03:03.295Z,1.50
2018-12-23T05:05:09.297Z,2.43
2018-12-23T05:07:14.041Z,1.10
2018-12-23T05:09:18.002Z,1.30
2018-12-23T05:11:21.801Z,1.40
2018-12-23T05:13:25.934Z,1.30
2018-12-23T05:15:29.728Z,1.27
2018-12-23T05:17:33.804Z,1.40
2018-12-23T05:19:37.943Z,1.37
2018-12-23T05:21:43.092Z,0.90
2018-12-23T05:23:46.748Z,1.23
2018-12-23T05:25:50.460Z,1.23
2018-12-23T05:27:57.021Z,1.97
2018-12-23T05:30:05.348Z,1.30
2018-12-23T05:32:11.494Z,1.43
2018-12-23T05:34:21.047Z,1.13
2018-12-23T05:36:24.638Z,1.33
2018-12-23T05:38:28.219Z,2.00
2018-12-23T05:40:32.414Z,2.10
2018-12-23T05:42:35.871Z,0.93
2018-12-23T05:44:39.734Z,1.50
2018-12-23T05:46:43.565Z,1.37
2018-12-23T05:48:47.437Z,1.30
2018-12-23T05:50:51.285Z,235.47
2018-12-23T05:52:55.381Z,39.10
2018-12-23T05:55:00.326Z,5.57
2018-12-23T05:57:08.272Z,16.40
2018-12-23T05:59:16.103Z,3.90
2018-12-23T06:01:19.833Z,10.73
2018-12-23T06:03:24.149Z,2.40
2018-12-23T06:05:27.897Z,7.93
2018-12-23T06:07:31.523Z,2.43
2018-12-23T06:09:35.212Z,0.83
2018-12-23T06:11:47.156Z,1.57
2018-12-23T06:13:50.811Z,115.43
2018-12-23T06:15:55.439Z,277.43
2018-12-23T06:17:59.867Z,448.50
2018-12-23T06:20:06.758Z,11.30
2018-12-23T06:22:12.537Z,6.77
2018-12-23T06:24:18.279Z,13.60
2018-12-23T06:26:22.399Z,3.53
2018-12-23T06:28:26.272Z,5.73
2018-12-23T06:30:34.944Z,9.07
2018-12-23T06:32:38.855Z,7.43
2018-12-23T06:34:42.329Z,5.00
2018-12-23T06:36:46.396Z,3.40
2018-12-23T06:38:50.114Z,3.93
2018-12-23T06:40:54.389Z,4.50
2018-12-23T06:42:58.180Z,5.47
2018-12-23T06:45:04.548Z,7.33
2018-12-23T06:47:11.049Z,9.67
2018-12-23T06:49:27.875Z,498.20
2018-12-23T06:51:31.622Z,1320.50
2018-12-23T06:53:35.755Z,890.63
2018-12-23T06:55:40.182Z,1358.10
2018-12-23T06:57:44.424Z,268.67
2018-12-23T06:59:48.136Z,621.47
2018-12-23T07:01:53.579Z,92.87
2018-12-23T07:03:57.355Z,24.47
2018-12-23T07:06:01.835Z,1383.87
2018-12-23T07:08:06.030Z,1251.60
2018-12-23T07:10:10.089Z,194.43
2018-12-23T07:12:13.896Z,31.77
2018-12-23T07:14:19.433Z,18.30
2018-12-23T07:16:23.893Z,687.30
2018-12-23T07:18:28.066Z,1343.50
2018-12-23T07:20:32.114Z,419.30
2018-12-23T07:22:36.633Z,18.57
2018-12-23T07:24:40.487Z,13.10
2018-12-23T07:26:46.814Z,358.23
2018-12-23T07:28:55.484Z,1156.77
2018-12-23T07:31:02.757Z,480.40
2018-12-23T07:33:06.921Z,29.00
2018-12-23T07:35:10.954Z,16.43
2018-12-23T07:37:15.739Z,11.90
2018-12-23T07:39:20.636Z,7.10
2018-12-23T07:41:28.064Z,7.27
2018-12-23T07:43:32.185Z,162.27
2018-12-23T07:45:36.187Z,4.90
2018-12-23T07:47:40.017Z,5.57
2018-12-23T07:49:44.281Z,5.70
2018-12-23T07:51:49.495Z,5.63
2018-12-23T07:53:56.560Z,5.67
2018-12-23T07:56:02.811Z,3.20
2018-12-23T07:58:09.353Z,3.10
2018-12-23T08:00:13.897Z,5.70
2018-12-23T08:02:17.613Z,2.67
2018-12-23T08:04:21.473Z,3.53
2018-12-23T08:06:25.688Z,4.60
2018-12-23T08:08:30.340Z,3.07
2018-12-23T08:10:36.004Z,3.00
2018-12-23T08:12:39.992Z,6.33
2018-12-23T08:14:43.640Z,5.17
2018-12-23T08:16:47.345Z,3.43
2018-12-23T08:18:52.498Z,3.97
2018-12-23T08:21:00.627Z,2.27
2018-12-23T08:23:05.490Z,4.20
2018-12-23T08:25:15.635Z,3.30
2018-12-23T08:27:20.319Z,2.90
2018-12-23T08:29:24.432Z,3.50
2018-12-23T08:31:28.132Z,2.40
2018-12-23T08:33:33.101Z,2.60
2018-12-23T08:35:37.596Z,3.47
2018-12-23T08:37:44.705Z,4.43
2018-12-23T08:39:48.815Z,2.57
2018-12-23T08:41:52.347Z,2.27
2018-12-23T08:43:59.952Z,4.83
2018-12-23T08:46:06.596Z,4.87
2018-12-23T08:48:12.302Z,3.83
2018-12-23T08:50:19.927Z,2.17
2018-12-23T08:52:24.743Z,2.00
2018-12-23T08:54:29.686Z,1.93
2018-12-23T08:56:34.066Z,2.97
2018-12-23T08:58:37.963Z,3.10
2018-12-23T09:00:41.485Z,2.40
2018-12-23T09:02:45.290Z,2.73
2018-12-23T09:04:48.829Z,2.53
2018-12-23T09:06:52.628Z,2.23
2018-12-23T09:08:56.462Z,2.00
2018-12-23T09:11:00.725Z,1.87
2018-12-23T09:13:11.555Z,2.87
2018-12-23T09:15:19.668Z,2.20
2018-12-23T09:17:23.498Z,1.83
2018-12-23T09:19:27.511Z,1.90
2018-12-23T09:21:35.774Z,2.03
2018-12-23T09:23:41.449Z,2.20
2018-12-23T09:25:44.938Z,1.93
2018-12-23T09:27:48.648Z,1.57
2018-12-23T09:29:56.362Z,2.03
2018-12-23T09:32:00.535Z,1.90
2018-12-23T09:34:11.491Z,2.30
2018-12-23T09:36:20.133Z,2.60
2018-12-23T09:38:26.443Z,2.37
2018-12-23T09:40:30.098Z,2.50
2018-12-23T09:42:34.612Z,2.93
2018-12-23T09:44:42.101Z,2.13
2018-12-23T09:46:46.273Z,1.63
2018-12-23T09:48:49.838Z,1.80
2018-12-23T09:50:55.602Z,2.20
2018-12-23T09:52:59.440Z,1.70
2018-12-23T09:55:05.015Z,1.60
2018-12-23T09:57:10.613Z,2.00
2018-12-23T09:59:18.338Z,1.70
2018-12-23T10:01:25.287Z,2.40
2018-12-23T10:03:29.902Z,1.90
2018-12-23T10:05:37.138Z,2.10
2018-12-23T10:07:42.329Z,1.50
2018-12-23T10:09:58.897Z,1.40
2018-12-23T10:12:04.004Z,4.70
2018-12-23T10:14:10.788Z,3.03
2018-12-23T10:16:15.682Z,1.57
2018-12-23T10:18:19.719Z,2.90
2018-12-23T10:20:24.686Z,1.53
2018-12-23T10:22:29.002Z,1.67
2018-12-23T10:24:39.296Z,2.70
2018-12-23T10:26:48.171Z,2.40
2018-12-23T10:28:58.063Z,1.57
2018-12-23T10:31:04.877Z,1.63
2018-12-23T10:33:12.364Z,3.53
2018-12-23T10:35:20.606Z,2.57
2018-12-23T10:37:25.730Z,1.93
2018-12-23T10:39:31.920Z,1.50
2018-12-23T10:41:39.911Z,1.60
2018-12-23T10:43:46.452Z,1.63
2018-12-23T10:45:54.636Z,3.37
2018-12-23T10:48:06.611Z,2.23
2018-12-23T10:50:20.958Z,3.13
2018-12-23T10:52:26.126Z,1.53
2018-12-23T10:54:37.354Z,1.40
2018-12-23T10:56:46.070Z,1.60
2018-12-23T10:58:54.309Z,2.27
2018-12-23T11:01:06.158Z,1.40
2018-12-23T11:03:15.471Z,1.40
2018-12-23T11:05:20.124Z,1.60
2018-12-23T11:07:29.395Z,1.63
2018-12-23T11:09:38.701Z,2.33
2018-12-23T11:11:45.408Z,2.37
2018-12-23T11:13:52.209Z,3.27
2018-12-23T11:16:00.433Z,1.83
2018-12-23T11:18:13.793Z,2.17
2018-12-23T11:20:27.213Z,1.37
2018-12-23T11:22:39.448Z,1.40
2018-12-23T11:24:59.269Z,1.50
2018-12-23T11:27:08.843Z,1.80
2018-12-23T11:29:21.163Z,1.50
2018-12-23T11:31:27.448Z,1.87
2018-12-23T11:33:31.575Z,1.57
2018-12-23T11:35:39.284Z,1.83
2018-12-23T11:37:45.867Z,3.10
2018-12-23T11:39:51.331Z,2.10
2018-12-23T11:41:57.031Z,1.43
2018-12-23T11:44:05.612Z,1.40
2018-12-23T11:46:16.320Z,1.63
2018-12-23T11:48:24.113Z,1.90
2018-12-23T11:50:31.324Z,2.20
2018-12-23T11:52:37.767Z,1.83
2018-12-23T11:54:51.457Z,2.50
2018-12-23T11:56:57.750Z,1.90
2018-12-23T11:59:10.339Z,3.27
2018-12-23T12:03:46.453Z,3.67
2018-12-23T12:08:23.728Z,2.60
2018-12-23T12:10:30.902Z,1.83
2018-12-23T12:12:53.689Z,2.50
2018-12-23T12:15:02.015Z,1.93
2018-12-23T12:17:10.504Z,2.07
2018-12-23T12:19:22.437Z,2.43
2018-12-23T12:24:00.008Z,2.40
2018-12-23T12:28:51.798Z,1.00
2018-12-23T12:30:59.937Z,2.43
2018-12-23T12:33:06.609Z,1.43
2018-12-23T12:35:17.230Z,1.50
2018-12-23T12:37:36.788Z,1.30
2018-12-23T12:39:44.945Z,1.70
2018-12-23T12:41:51.034Z,1.33
2018-12-23T12:43:58.350Z,2.70
2018-12-23T12:46:10.327Z,1.30
2018-12-23T12:48:17.752Z,1.27
2018-12-23T12:50:29.753Z,1.57
2018-12-23T12:52:35.851Z,1.80
2018-12-23T12:54:41.923Z,1.37
2018-12-23T12:56:50.023Z,1.60
2018-12-23T12:59:01.272Z,1.53
2018-12-23T13:01:08.175Z,1.70
2018-12-23T13:03:17.593Z,1.83
2018-12-23T13:05:25.920Z,1.77
2018-12-23T13:07:35.298Z,2.03
2018-12-23T13:09:40.432Z,1.93
2018-12-23T13:12:01.131Z,1.60
2018-12-23T13:14:06.762Z,2.57
2018-12-23T13:16:13.983Z,1.40
2018-12-23T13:18:19.385Z,1.60
2018-12-23T13:20:35.557Z,2.33
2018-12-23T13:23:03.195Z,1.60
2018-12-23T13:25:13.349Z,1.70
2018-12-23T13:27:31.497Z,1.30
2018-12-23T13:29:44.044Z,1.50
2018-12-23T13:31:54.603Z,1.70
2018-12-23T13:34:12.183Z,1.10
2018-12-23T13:36:30.634Z,2.03
2018-12-23T13:38:35.575Z,1.73
2018-12-23T13:41:08.339Z,1.40
2018-12-23T13:43:23.870Z,1.40
2018-12-23T13:45:55.257Z,2.30
2018-12-23T13:48:48.683Z,1.50
2018-12-23T13:51:22.472Z,1.70
2018-12-23T13:54:56.068Z,1.93
2018-12-23T13:59:19.416Z,1.20
2018-12-23T14:01:34.863Z,2.40
2018-12-23T14:04:09.931Z,1.43
2018-12-23T14:08:42.084Z,1.77
2018-12-23T14:11:17.887Z,1.30
2018-12-23T14:13:40.098Z,3.67
2018-12-23T14:15:49.723Z,1.43
2018-12-23T14:18:11.034Z,1.60
2018-12-23T14:20:18.616Z,1.10
2018-12-23T14:22:28.364Z,1.10
2018-12-23T14:24:31.991Z,1.53
2018-12-23T14:26:37.439Z,1.67
2018-12-23T14:28:42.244Z,1.10
2018-12-23T14:30:46.676Z,2.40
2018-12-23T14:32:52.187Z,1.77
2018-12-23T14:34:56.474Z,1.50
2018-12-23T14:37:03.375Z,2.00
2018-12-23T14:39:16.067Z,1.67
2018-12-23T14:41:20.921Z,2.40
2018-12-23T14:43:26.166Z,1.50
2018-12-23T14:45:29.848Z,1.10
2018-12-23T14:47:37.214Z,1.20
2018-12-23T14:49:42.974Z,2.40
2018-12-23T14:51:46.889Z,1.53
2018-12-23T14:53:54.826Z,2.07
2018-12-23T14:56:06.224Z,1.20
2018-12-23T14:58:12.921Z,1.30
2018-12-23T15:00:19.987Z,1.17
2018-12-23T15:02:29.095Z,1.20
2018-12-23T15:04:35.328Z,1.63
2018-12-23T15:06:42.681Z,1.33
2018-12-23T15:08:46.857Z,1.10
2018-12-23T15:10:54.452Z,1.50
2018-12-23T15:13:05.130Z,1.20
2018-12-23T15:15:18.543Z,1.50
2018-12-23T15:17:53.803Z,1.20
2018-12-23T15:20:21.667Z,1.90
2018-12-23T15:23:01.294Z,0.87
2018-12-23T15:25:12.693Z,1.37
2018-12-23T15:27:18.667Z,0.97
2018-12-23T15:34:00.117Z,1.10
2018-12-23T15:36:21.276Z,1.27
2018-12-23T15:38:38.104Z,1.53
2018-12-23T15:43:39.936Z,1.17
2018-12-23T15:45:56.059Z,1.27
2018-12-23T15:50:19.924Z,0.90
2018-12-23T15:55:34.046Z,1.20
2018-12-23T16:03:48.975Z,1.27
2018-12-23T16:11:00.857Z,2.00
2018-12-23T16:20:01.951Z,2.10
2018-12-23T16:22:06.743Z,1.57
2018-12-23T16:24:37.811Z,1.50
2018-12-23T16:26:53.896Z,2.17
2018-12-23T16:29:05.321Z,1.80
2018-12-23T16:31:14.204Z,1.77
2018-12-23T16:33:24.465Z,1.83
2018-12-23T16:35:30.213Z,2.33
2018-12-23T16:37:39.436Z,2.10
2018-12-23T16:39:48.000Z,2.40
2018-12-23T16:41:59.357Z,1.93
2018-12-23T16:44:10.736Z,2.20
2018-12-23T16:46:15.641Z,2.20
2018-12-23T16:48:23.396Z,1.67
2018-12-23T16:50:32.817Z,2.20
2018-12-23T16:52:40.405Z,1.80
2018-12-23T16:54:44.986Z,1.70
2018-12-23T16:56:50.191Z,1.93
2018-12-23T16:58:59.612Z,2.33
2018-12-23T17:01:13.688Z,2.50
2018-12-23T17:03:18.077Z,1.70
2018-12-23T17:05:25.030Z,2.17
2018-12-23T17:07:30.326Z,2.17
2018-12-23T17:09:36.888Z,2.07
2018-12-23T17:11:42.153Z,1.97
2018-12-23T17:13:46.565Z,1.73
2018-12-23T17:15:53.375Z,2.10
2018-12-23T17:18:06.357Z,1.80
2018-12-23T17:20:14.083Z,1.90
2018-12-23T17:22:22.725Z,2.10
2018-12-23T17:24:33.338Z,1.90
2018-12-23T17:26:38.137Z,1.60
2018-12-23T17:28:44.743Z,2.00
2018-12-23T17:30:49.085Z,1.83
2018-12-23T17:32:53.599Z,1.53
2018-12-23T17:35:06.047Z,2.33
2018-12-23T17:37:18.671Z,1.83
2018-12-23T17:39:24.564Z,1.60
2018-12-23T17:41:34.129Z,2.20
2018-12-23T17:43:43.704Z,2.83
2018-12-23T17:45:50.821Z,2.07
2018-12-23T17:47:58.358Z,1.50
2018-12-23T17:50:07.767Z,2.37
2018-12-23T17:57:30.901Z,2.03
2018-12-23T17:59:38.594Z,2.10
2018-12-23T18:01:48.065Z,2.20
2018-12-23T18:04:02.247Z,2.03
2018-12-23T18:06:04.223Z,1.73
2018-12-23T18:08:16.402Z,2.20
2018-12-23T18:10:25.095Z,1.93
2018-12-23T18:12:34.550Z,2.10
2018-12-23T18:14:41.902Z,2.30
2018-12-23T18:16:57.572Z,2.20
2018-12-23T18:19:21.819Z,2.00
2018-12-23T19:01:21.608Z,2.23
2018-12-23T19:06:16.103Z,2.50
2018-12-23T19:08:29.641Z,2.90
2018-12-23T19:11:31.134Z,2.00
2018-12-23T19:14:11.463Z,2.07
2018-12-23T19:16:50.545Z,1.80
2018-12-23T19:19:41.480Z,2.13
2018-12-23T19:22:24.224Z,1.70
2018-12-23T19:35:33.575Z,2.70
2018-12-23T19:44:57.300Z,2.00
2018-12-23T19:47:16.124Z,2.70
2018-12-23T19:49:40.653Z,2.53
2018-12-23T19:58:11.425Z,3.63
2018-12-23T20:00:56.030Z,3.00
2018-12-23T20:03:48.562Z,3.77
2018-12-23T20:06:39.113Z,3.40
2018-12-23T20:09:29.614Z,3.83
2018-12-23T20:15:24.804Z,3.80
2018-12-23T20:20:01.349Z,3.23
2018-12-23T20:22:37.288Z,3.63
2018-12-23T20:25:43.672Z,4.00
2018-12-23T20:28:38.453Z,2.97
2018-12-23T20:31:22.821Z,3.20
2018-12-23T20:34:06.476Z,3.97
2018-12-23T20:36:48.194Z,3.77
2018-12-23T20:39:34.400Z,3.53
2018-12-23T20:42:18.772Z,3.87
2018-12-23T20:45:15.127Z,3.47
2018-12-23T20:53:45.142Z,4.10
2018-12-23T20:56:04.020Z,3.43
2018-12-23T20:58:33.156Z,3.57
2018-12-23T21:01:19.036Z,4.07
2018-12-23T21:03:47.694Z,3.57
2018-12-23T21:18:09.855Z,3.53
2018-12-23T21:26:19.691Z,3.43
2018-12-23T21:28:35.629Z,3.30
2018-12-23T21:42:14.349Z,3.30
2018-12-23T21:44:39.358Z,3.30
2018-12-23T21:47:33.428Z,3.37
2018-12-23T21:50:17.902Z,3.17
2018-12-23T22:06:14.983Z,3.00
2018-12-23T22:14:17.762Z,2.70
2018-12-23T22:16:24.155Z,3.10
2018-12-23T22:30:27.825Z,2.20
2018-12-23T22:33:11.674Z,2.87
2018-12-23T22:58:20.289Z,2.30
2018-12-23T23:00:33.916Z,2.40
2018-12-23T23:02:40.105Z,1.87
2018-12-23T23:04:48.381Z,2.10
2018-12-23T23:07:00.245Z,2.30
2018-12-23T23:09:16.843Z,2.30
2018-12-23T23:12:05.824Z,2.00
2018-12-23T23:14:14.370Z,1.97
2018-12-23T23:19:34.564Z,1.90
2018-12-23T23:27:36.452Z,1.57
2018-12-23T23:34:41.121Z,2.23
2018-12-23T23:36:48.088Z,1.83
2018-12-23T23:38:52.716Z,2.20
2018-12-23T23:40:57.053Z,2.13
2018-12-23T23:43:01.730Z,2.10
2018-12-23T23:45:08.194Z,1.73
2018-12-23T23:47:20.359Z,1.77
2018-12-23T23:57:32.110Z,1.43
2018-12-23T23:59:55.667Z,1.47
